createdAt,value
2017-10-11T00:01:13.970Z,86.90
2017-10-11T00:03:41.440Z,86.90
2017-10-11T00:06:08.911Z,86.90
2017-10-11T00:08:36.400Z,87.00
2017-10-11T00:11:03.879Z,87.00
2017-10-11T00:13:31.372Z,87.00
2017-10-11T00:15:58.855Z,87.00
2017-10-11T00:18:26.323Z,87.00
2017-10-11T00:20:54.605Z,87.10
2017-10-11T00:23:22.841Z,87.20
2017-10-11T00:25:50.318Z,87.20
2017-10-11T00:28:17.796Z,87.20
2017-10-11T00:30:45.273Z,87.20
2017-10-11T00:33:13.383Z,87.20
2017-10-11T00:35:40.843Z,87.20
2017-10-11T00:38:08.356Z,87.20
2017-10-11T00:40:35.839Z,87.20
2017-10-11T00:43:03.314Z,87.20
2017-10-11T00:45:30.790Z,87.20
2017-10-11T00:47:58.257Z,87.10
2017-10-11T00:50:26.543Z,87.10
2017-10-11T00:52:54.798Z,87.10
2017-10-11T00:55:22.294Z,87.10
2017-10-11T00:57:50.535Z,87.10
2017-10-11T01:00:17.991Z,87.10
2017-10-11T01:02:45.476Z,87.10
2017-10-11T01:05:12.947Z,87.20
2017-10-11T01:07:40.438Z,87.20
2017-10-11T01:10:07.903Z,87.20
2017-10-11T01:12:35.393Z,87.20
2017-10-11T01:15:02.861Z,87.20
2017-10-11T01:17:30.313Z,87.20
2017-10-11T01:19:57.832Z,87.20
2017-10-11T01:22:25.302Z,87.20
2017-10-11T01:24:52.800Z,87.10
2017-10-11T01:27:21.034Z,87.20
2017-10-11T01:29:48.516Z,87.20
2017-10-11T01:32:15.975Z,87.20
2017-10-11T01:34:43.449Z,87.20
2017-10-11T01:37:11.680Z,87.20
2017-10-11T01:39:39.202Z,87.20
2017-10-11T01:42:06.696Z,87.20
2017-10-11T01:44:34.155Z,87.20
2017-10-11T01:47:02.074Z,87.20
2017-10-11T01:49:30.290Z,87.10
2017-10-11T01:51:57.748Z,87.10
2017-10-11T01:54:25.239Z,87.10
2017-10-11T01:56:52.707Z,87.20
2017-10-11T01:59:20.189Z,87.10
2017-10-11T02:01:48.407Z,87.20
2017-10-11T02:04:15.896Z,87.20
2017-10-11T02:06:43.363Z,87.20
2017-10-11T02:09:10.839Z,87.20
2017-10-11T02:11:38.335Z,87.20
2017-10-11T02:14:05.817Z,87.20
2017-10-11T02:16:33.290Z,87.20
2017-10-11T02:19:00.747Z,87.20
2017-10-11T02:21:28.259Z,87.20
2017-10-11T02:23:55.739Z,87.20
2017-10-11T02:26:23.188Z,87.20
2017-10-11T02:28:50.671Z,87.30
2017-10-11T02:31:18.159Z,87.30
2017-10-11T02:33:46.431Z,87.10
2017-10-11T02:36:14.696Z,87.20
2017-10-11T02:38:42.171Z,87.20
2017-10-11T02:41:10.395Z,87.10
2017-10-11T02:43:37.871Z,87.10
2017-10-11T02:46:05.327Z,87.10
2017-10-11T02:48:33.240Z,87.10
2017-10-11T02:51:01.463Z,87.20
2017-10-11T02:53:28.947Z,87.20
2017-10-11T02:55:56.419Z,87.30
2017-10-11T02:58:24.680Z,87.30
2017-10-11T03:00:52.126Z,87.30
2017-10-11T03:03:19.632Z,87.30
2017-10-11T03:05:47.082Z,87.30
2017-10-11T03:08:14.572Z,87.20
2017-10-11T03:10:42.070Z,87.20
2017-10-11T03:13:09.523Z,87.20
2017-10-11T03:15:36.986Z,87.20
2017-10-11T03:18:04.472Z,87.10
2017-10-11T03:20:32.715Z,87.10
2017-10-11T03:23:00.203Z,87.10
2017-10-11T03:25:28.708Z,87.20
2017-10-11T03:27:56.229Z,87.20
2017-10-11T03:30:24.579Z,87.20
2017-10-11T03:32:52.078Z,87.10
2017-10-11T03:35:20.310Z,87.10
2017-10-11T03:37:47.754Z,87.10
2017-10-11T03:40:15.252Z,87.20
2017-10-11T03:42:42.708Z,87.20
2017-10-11T03:45:10.574Z,87.30
2017-10-11T03:47:38.043Z,87.20
2017-10-11T03:50:06.267Z,87.10
2017-10-11T03:52:33.758Z,87.10
2017-10-11T03:55:01.248Z,87.10
2017-10-11T03:57:29.487Z,87.10
2017-10-11T03:59:56.951Z,87.10
2017-10-11T04:02:24.435Z,87.00
2017-10-11T04:04:52.683Z,87.00
2017-10-11T04:07:20.171Z,87.00
2017-10-11T04:09:48.412Z,87.00
2017-10-11T04:12:15.879Z,87.10
2017-10-11T04:14:43.366Z,87.10
2017-10-11T04:17:11.594Z,87.00
2017-10-11T04:19:39.086Z,87.00
2017-10-11T04:22:06.539Z,87.10
2017-10-11T04:24:34.036Z,87.00
2017-10-11T04:27:01.510Z,86.90
2017-10-11T04:29:29.789Z,86.80
2017-10-11T04:31:57.266Z,86.80
2017-10-11T04:34:24.763Z,86.80
2017-10-11T04:36:52.215Z,86.80
2017-10-11T04:39:19.695Z,86.70
2017-10-11T04:41:47.948Z,86.60
2017-10-11T04:44:15.418Z,86.60
2017-10-11T04:46:43.667Z,86.70
2017-10-11T04:49:11.456Z,86.70
2017-10-11T04:51:39.684Z,86.60
2017-10-11T04:54:07.149Z,86.60
2017-10-11T04:56:34.630Z,86.50
2017-10-11T04:59:02.107Z,86.50
2017-10-11T05:01:30.355Z,86.60
2017-10-11T05:03:57.843Z,86.60
2017-10-11T05:06:26.076Z,86.60
2017-10-11T05:08:53.563Z,86.60
2017-10-11T05:11:21.035Z,87.40
2017-10-11T05:13:48.512Z,87.60
2017-10-11T05:16:16.768Z,85.00
2017-10-11T05:18:44.250Z,85.60
2017-10-11T05:21:11.733Z,84.90
2017-10-11T05:23:39.203Z,84.30
2017-10-11T05:26:06.687Z,83.70
2017-10-11T05:28:34.209Z,83.40
2017-10-11T05:31:01.683Z,83.30
2017-10-11T05:33:29.151Z,82.90
2017-10-11T05:35:57.354Z,82.30
2017-10-11T05:38:25.608Z,81.40
2017-10-11T05:40:53.105Z,81.40
2017-10-11T05:43:21.326Z,80.60
2017-10-11T05:45:48.806Z,80.60
2017-10-11T05:48:16.296Z,79.90
2017-10-11T05:50:44.964Z,80.10
2017-10-11T05:53:13.209Z,79.90
2017-10-11T05:55:40.675Z,79.90
2017-10-11T05:58:08.166Z,80.30
2017-10-11T06:00:36.400Z,80.10
2017-10-11T06:03:03.898Z,80.10
2017-10-11T06:05:32.136Z,83.30
2017-10-11T06:07:59.624Z,83.30
2017-10-11T06:10:27.086Z,84.40
2017-10-11T06:12:54.563Z,82.90
2017-10-11T06:15:22.800Z,80.60
2017-10-11T06:17:50.264Z,80.60
2017-10-11T06:20:17.756Z,80.10
2017-10-11T06:22:45.270Z,79.40
2017-10-11T06:25:12.754Z,81.10
2017-10-11T06:27:40.236Z,80.60
2017-10-11T06:30:08.491Z,80.10
2017-10-11T06:32:35.969Z,80.10
2017-10-11T06:35:04.222Z,80.10
2017-10-11T06:37:31.732Z,80.10
2017-10-11T06:39:59.217Z,79.70
2017-10-11T06:42:26.711Z,79.70
2017-10-11T06:44:54.935Z,80.40
2017-10-11T06:47:22.439Z,80.40
2017-10-11T06:49:49.900Z,80.10
2017-10-11T06:52:18.146Z,82.60
2017-10-11T06:54:45.648Z,82.60
2017-10-11T06:57:13.914Z,81.80
2017-10-11T06:59:42.159Z,82.00
2017-10-11T07:02:09.640Z,82.00
2017-10-11T07:04:37.119Z,82.90
2017-10-11T07:07:04.655Z,84.30
2017-10-11T07:09:32.156Z,84.00
2017-10-11T07:11:59.638Z,83.90
2017-10-11T07:14:27.138Z,83.00
2017-10-11T07:16:55.379Z,83.40
2017-10-11T07:19:22.855Z,83.30
2017-10-11T07:21:50.332Z,84.40
2017-10-11T07:24:18.584Z,85.90
2017-10-11T07:26:46.069Z,85.90
2017-10-11T07:29:13.561Z,86.10
2017-10-11T07:31:41.075Z,86.60
2017-10-11T07:34:08.570Z,86.90
2017-10-11T07:36:36.060Z,87.00
2017-10-11T07:39:03.540Z,87.20
2017-10-11T07:41:31.011Z,87.20
2017-10-11T07:43:58.500Z,87.10
2017-10-11T07:46:25.964Z,87.10
2017-10-11T07:48:53.460Z,87.20
2017-10-11T07:51:20.927Z,87.20
2017-10-11T07:53:48.414Z,87.20
2017-10-11T07:56:16.679Z,87.30
2017-10-11T07:58:44.183Z,87.30
2017-10-11T08:01:11.657Z,87.60
2017-10-11T08:03:39.147Z,87.60
2017-10-11T08:06:06.639Z,87.70
2017-10-11T08:08:34.910Z,87.60
2017-10-11T08:11:03.154Z,87.70
2017-10-11T08:13:30.643Z,87.60
2017-10-11T08:15:58.898Z,87.90
2017-10-11T08:18:26.410Z,87.90
2017-10-11T08:20:53.899Z,87.70
2017-10-11T08:23:21.382Z,87.60
2017-10-11T08:25:49.626Z,88.10
2017-10-11T08:28:17.091Z,88.10
2017-10-11T08:30:44.583Z,87.90
2017-10-11T08:33:12.828Z,87.70
2017-10-11T08:35:40.291Z,87.70
2017-10-11T08:38:07.821Z,87.90
2017-10-11T08:40:35.317Z,87.60
2017-10-11T08:43:02.830Z,88.00
2017-10-11T08:45:30.312Z,88.00
2017-10-11T08:47:57.786Z,88.00
2017-10-11T08:50:25.295Z,87.80
2017-10-11T08:52:52.808Z,87.10
2017-10-11T08:55:20.299Z,87.90
2017-10-11T08:57:48.520Z,87.80
2017-10-11T09:00:16.008Z,87.80
2017-10-11T09:02:43.472Z,87.50
2017-10-11T09:05:11.767Z,87.00
2017-10-11T09:07:40.009Z,86.60
2017-10-11T09:10:07.475Z,86.60
2017-10-11T09:12:34.958Z,82.60
2017-10-11T09:15:03.219Z,81.80
2017-10-11T09:17:30.707Z,81.80
2017-10-11T09:19:58.198Z,82.00
2017-10-11T09:22:25.741Z,81.20
2017-10-11T09:24:53.559Z,81.20
2017-10-11T09:27:21.040Z,81.70
2017-10-11T09:29:49.316Z,80.60
2017-10-11T09:32:17.543Z,80.80
2017-10-11T09:34:45.029Z,80.80
2017-10-11T09:37:12.503Z,81.20
2017-10-11T09:39:40.781Z,79.40
2017-10-11T09:42:09.035Z,79.10
2017-10-11T09:44:36.540Z,79.10
2017-10-11T09:47:04.047Z,78.10
2017-10-11T09:49:33.087Z,79.10
2017-10-11T09:52:00.579Z,79.20
2017-10-11T09:54:28.059Z,77.60
2017-10-11T09:56:55.537Z,78.20
2017-10-11T09:59:23.759Z,75.50
2017-10-11T10:01:51.258Z,75.50
2017-10-11T10:04:18.736Z,75.80
2017-10-11T10:06:47.000Z,77.10
2017-10-11T10:09:14.497Z,77.10
2017-10-11T10:11:41.968Z,75.40
2017-10-11T10:14:09.451Z,75.20
2017-10-11T10:16:36.933Z,77.40
2017-10-11T10:19:05.188Z,73.80
2017-10-11T10:21:32.658Z,73.80
2017-10-11T10:24:00.143Z,74.50
2017-10-11T10:26:28.363Z,70.70
2017-10-11T10:28:55.863Z,70.70
2017-10-11T10:31:24.092Z,69.20
2017-10-11T10:33:51.576Z,69.10
2017-10-11T10:36:19.055Z,69.20
2017-10-11T10:38:46.518Z,70.10
2017-10-11T10:41:14.773Z,68.50
2017-10-11T10:43:42.258Z,68.50
2017-10-11T10:46:10.519Z,69.30
2017-10-11T10:48:37.983Z,69.20
2017-10-11T10:51:05.452Z,68.00
2017-10-11T10:53:33.709Z,68.90
2017-10-11T10:56:01.197Z,68.90
2017-10-11T10:58:29.427Z,69.30
2017-10-11T11:00:56.891Z,69.30
2017-10-11T11:03:24.355Z,70.20
2017-10-11T11:05:51.831Z,69.50
2017-10-11T11:08:20.056Z,69.70
2017-10-11T11:10:47.548Z,69.70
2017-10-11T11:13:15.020Z,70.50
2017-10-11T11:15:42.500Z,72.50
2017-10-11T11:18:10.729Z,72.50
2017-10-11T11:20:38.216Z,72.60
2017-10-11T11:23:05.683Z,71.70
2017-10-11T11:25:33.917Z,71.10
2017-10-11T11:28:01.407Z,71.00
2017-10-11T11:30:28.871Z,72.50
2017-10-11T11:32:57.123Z,70.60
2017-10-11T11:35:24.582Z,70.60
2017-10-11T11:37:52.079Z,69.10
2017-10-11T11:40:20.325Z,67.60
2017-10-11T11:42:47.807Z,67.60
2017-10-11T11:45:16.060Z,65.90
2017-10-11T11:47:43.536Z,65.90
2017-10-11T11:50:11.820Z,66.50
2017-10-11T11:52:40.072Z,67.40
2017-10-11T11:55:07.589Z,67.30
2017-10-11T11:57:35.079Z,68.80
2017-10-11T12:00:02.650Z,68.50
2017-10-11T12:02:30.134Z,69.00
2017-10-11T12:04:58.361Z,68.30
2017-10-11T12:07:25.829Z,68.30
2017-10-11T12:09:53.317Z,68.60
2017-10-11T12:12:20.828Z,68.20
2017-10-11T12:14:48.310Z,67.60
2017-10-11T12:17:15.782Z,69.20
2017-10-11T12:19:43.266Z,67.90
2017-10-11T12:22:11.479Z,68.60
2017-10-11T12:24:38.988Z,68.60
2017-10-11T12:27:06.448Z,67.90
2017-10-11T12:29:34.731Z,68.00
2017-10-11T12:32:02.991Z,67.20
2017-10-11T12:34:31.091Z,67.20
2017-10-11T12:36:58.600Z,67.80
2017-10-11T12:39:26.081Z,65.30
2017-10-11T12:41:53.551Z,65.20
2017-10-11T12:44:22.239Z,64.90
2017-10-11T12:46:50.467Z,65.50
2017-10-11T12:49:17.953Z,65.40
2017-10-11T12:51:45.416Z,66.10
2017-10-11T12:54:12.940Z,67.40
2017-10-11T12:56:40.388Z,65.80
2017-10-11T12:59:07.880Z,64.70
2017-10-11T13:01:35.371Z,65.10
2017-10-11T13:04:03.608Z,63.80
2017-10-11T13:19:36.126Z,63.70
2017-10-11T13:22:03.616Z,66.50
2017-10-11T13:24:31.091Z,65.60
2017-10-11T13:26:58.563Z,66.60
2017-10-11T13:29:26.063Z,64.30
2017-10-11T13:31:53.534Z,64.80
2017-10-11T13:34:21.058Z,64.60
2017-10-11T13:36:49.279Z,64.20
2017-10-11T13:39:16.756Z,64.10
2017-10-11T13:41:44.226Z,64.70
2017-10-11T13:44:11.720Z,63.70
2017-10-11T13:46:39.956Z,64.50
2017-10-11T13:49:07.435Z,64.50
2017-10-11T13:51:34.942Z,64.40
2017-10-11T13:54:02.442Z,63.40
2017-10-11T13:56:29.942Z,63.70
2017-10-11T13:58:57.418Z,64.20
2017-10-11T14:01:24.913Z,62.70
2017-10-11T14:03:52.400Z,63.80
2017-10-11T14:06:20.611Z,61.60
2017-10-11T14:08:48.121Z,61.60
2017-10-11T14:11:15.582Z,62.00
2017-10-11T14:13:43.062Z,62.90
2017-10-11T14:16:10.543Z,61.50
2017-10-11T14:18:37.997Z,61.00
2017-10-11T14:21:05.480Z,61.70
2017-10-11T14:23:32.961Z,61.00
2017-10-11T14:26:00.471Z,61.70
2017-10-11T14:28:28.009Z,60.60
2017-10-11T14:30:56.381Z,61.00
2017-10-11T14:33:24.686Z,60.60
2017-10-11T14:35:52.215Z,60.50
2017-10-11T14:38:20.469Z,60.60
2017-10-11T14:40:47.932Z,60.60
2017-10-11T14:43:15.415Z,60.70
2017-10-11T14:45:43.658Z,60.80
2017-10-11T14:48:11.137Z,60.80
2017-10-11T14:50:38.604Z,60.70
2017-10-11T14:53:06.823Z,60.60
2017-10-11T14:55:34.339Z,60.60
2017-10-11T14:58:02.572Z,61.50
2017-10-11T15:00:30.849Z,60.90
2017-10-11T15:02:58.300Z,60.90
2017-10-11T15:05:25.806Z,61.50
2017-10-11T15:07:54.063Z,62.00
2017-10-11T15:10:21.547Z,62.00
2017-10-11T15:12:49.789Z,61.50
2017-10-11T15:15:17.289Z,61.60
2017-10-11T15:17:45.520Z,61.90
2017-10-11T15:20:13.040Z,61.90
2017-10-11T15:22:40.526Z,62.20
2017-10-11T15:25:08.359Z,62.70
2017-10-11T15:27:35.881Z,63.60
2017-10-11T15:36:11.191Z,67.70
2017-10-11T15:38:39.497Z,72.50
2017-10-11T15:41:07.292Z,72.50
2017-10-11T15:43:34.784Z,76.00
2017-10-11T15:46:03.477Z,78.00
2017-10-11T15:48:30.964Z,78.00
2017-10-11T15:50:58.450Z,77.70
2017-10-11T15:53:25.978Z,76.80
2017-10-11T15:55:53.452Z,77.30
2017-10-11T15:58:20.916Z,78.30
2017-10-11T16:00:48.427Z,79.40
2017-10-11T16:03:16.660Z,81.10
2017-10-11T16:05:44.154Z,81.10
2017-10-11T16:08:12.420Z,81.40
2017-10-11T16:10:39.905Z,81.40
2017-10-11T16:13:08.151Z,82.00
2017-10-11T16:15:35.616Z,82.00
2017-10-11T16:18:03.075Z,82.30
2017-10-11T16:20:30.582Z,82.60
2017-10-11T16:22:58.058Z,82.80
2017-10-11T16:25:25.536Z,83.20
2017-10-11T16:27:53.049Z,83.50
2017-10-11T16:30:20.513Z,83.70
2017-10-11T16:32:49.130Z,83.80
2017-10-11T16:35:16.600Z,84.00
2017-10-11T16:37:44.095Z,84.00
2017-10-11T16:40:12.333Z,84.10
2017-10-11T16:42:39.826Z,84.10
2017-10-11T16:45:08.093Z,83.60
2017-10-11T16:47:36.308Z,83.40
2017-10-11T16:50:03.776Z,83.40
2017-10-11T16:52:31.281Z,83.40
2017-10-11T16:54:59.522Z,83.10
2017-10-11T16:57:27.029Z,83.00
2017-10-11T16:59:55.263Z,83.00
2017-10-11T17:02:22.749Z,82.90
2017-10-11T17:04:50.231Z,83.20
2017-10-11T17:07:17.707Z,83.00
2017-10-11T17:09:45.207Z,83.30
2017-10-11T17:12:12.683Z,82.90
2017-10-11T17:14:40.908Z,82.70
2017-10-11T17:17:08.428Z,82.70
2017-10-11T17:19:36.666Z,83.10
2017-10-11T17:22:04.167Z,83.00
2017-10-11T17:24:31.648Z,84.20
2017-10-11T17:26:59.148Z,84.40
2017-10-11T17:29:26.619Z,84.60
2017-10-11T17:31:54.135Z,84.00
2017-10-11T17:34:21.615Z,83.60
2017-10-11T17:36:49.150Z,83.70
2017-10-11T17:39:16.645Z,83.30
2017-10-11T17:41:44.123Z,83.90
2017-10-11T17:44:12.388Z,83.30
2017-10-11T17:46:39.887Z,83.30
2017-10-11T17:49:07.371Z,83.60
2017-10-11T17:51:34.853Z,82.90
2017-10-11T17:54:02.357Z,83.20
2017-10-11T17:56:29.880Z,82.50
2017-10-11T17:58:57.366Z,82.20
2017-10-11T18:01:25.608Z,82.80
2017-10-11T18:03:53.090Z,82.80
2017-10-11T18:06:21.346Z,84.10
2017-10-11T18:08:48.846Z,84.10
2017-10-11T18:11:16.323Z,83.50
2017-10-11T18:13:43.811Z,83.30
2017-10-11T18:16:11.331Z,82.60
2017-10-11T18:18:38.813Z,83.10
2017-10-11T18:21:06.311Z,83.80
2017-10-11T18:23:34.559Z,83.40
2017-10-11T18:26:02.050Z,83.40
2017-10-11T18:28:30.310Z,83.40
2017-10-11T18:30:57.789Z,83.40
2017-10-11T18:33:26.044Z,83.30
2017-10-11T18:35:53.561Z,83.30
2017-10-11T18:38:21.041Z,83.20
2017-10-11T18:40:49.475Z,82.80
2017-10-11T18:43:16.957Z,82.30
2017-10-11T18:45:44.474Z,83.80
2017-10-11T18:48:11.980Z,83.00
2017-10-11T18:50:39.477Z,82.90
2017-10-11T18:53:06.954Z,82.70
2017-10-11T18:55:35.240Z,81.80
2017-10-11T18:58:03.475Z,81.80
2017-10-11T19:00:30.984Z,81.80
2017-10-11T19:02:58.491Z,81.60
2017-10-11T19:05:25.976Z,81.30
2017-10-11T19:07:53.524Z,81.10
2017-10-11T19:10:21.011Z,81.10
2017-10-11T19:12:49.260Z,80.80
2017-10-11T19:15:16.743Z,80.80
2017-10-11T19:17:45.010Z,81.50
2017-10-11T19:20:12.484Z,81.50
2017-10-11T19:22:40.777Z,81.70
2017-10-11T19:25:08.248Z,81.70
2017-10-11T19:27:35.751Z,81.30
2017-10-11T19:30:03.231Z,81.40
2017-10-11T19:32:31.459Z,82.90
2017-10-11T19:34:58.972Z,82.90
2017-10-11T19:37:27.219Z,83.30
2017-10-11T19:39:54.686Z,83.30
2017-10-11T19:42:22.169Z,83.00
2017-10-11T19:44:49.689Z,82.70
2017-10-11T19:47:17.161Z,81.90
2017-10-11T19:49:44.646Z,81.90
2017-10-11T19:52:12.128Z,81.40
2017-10-11T19:54:39.630Z,81.70
2017-10-11T19:57:07.868Z,81.10
2017-10-11T19:59:35.335Z,81.20
2017-10-11T20:02:02.816Z,80.80
2017-10-11T20:04:30.289Z,80.60
2017-10-11T20:06:57.896Z,81.10
2017-10-11T20:09:25.372Z,80.20
2017-10-11T20:11:52.860Z,81.10
2017-10-11T20:14:20.333Z,80.70
2017-10-11T20:16:48.579Z,80.50
2017-10-11T20:19:16.077Z,80.50
2017-10-11T20:21:44.347Z,80.90
2017-10-11T20:24:12.601Z,81.10
2017-10-11T20:26:40.080Z,81.00
2017-10-11T20:29:08.348Z,81.30
2017-10-11T20:31:35.819Z,81.20
2017-10-11T20:34:04.080Z,80.90
2017-10-11T20:36:31.569Z,80.90
2017-10-11T20:38:59.058Z,80.60
2017-10-11T20:41:26.540Z,80.70
2017-10-11T20:43:54.009Z,79.80
2017-10-11T20:46:21.482Z,80.00
2017-10-11T20:48:49.748Z,79.90
2017-10-11T20:51:17.258Z,79.90
2017-10-11T20:53:44.744Z,80.10
2017-10-11T20:56:12.215Z,79.50
2017-10-11T20:58:39.715Z,79.40
2017-10-11T21:01:07.176Z,79.50
2017-10-11T21:03:34.642Z,79.40
2017-10-11T21:06:02.151Z,79.50
2017-10-11T21:08:29.627Z,79.10
2017-10-11T21:10:57.091Z,79.50
2017-10-11T21:13:25.311Z,80.50
2017-10-11T21:15:52.809Z,80.50
2017-10-11T21:18:20.275Z,81.10
2017-10-11T21:20:48.579Z,80.30
2017-10-11T21:23:16.041Z,80.30
2017-10-11T21:25:43.525Z,79.90
2017-10-11T21:28:11.027Z,79.80
2017-10-11T21:30:39.262Z,80.00
2017-10-11T21:33:06.744Z,80.00
2017-10-11T21:35:34.223Z,79.90
2017-10-11T21:38:02.481Z,79.10
2017-10-11T21:40:29.964Z,79.10
2017-10-11T21:42:58.261Z,79.10
2017-10-11T21:45:25.716Z,79.10
2017-10-11T21:47:53.194Z,78.20
2017-10-11T21:50:20.689Z,79.30
2017-10-11T21:52:48.163Z,79.20
2017-10-11T21:55:16.431Z,78.90
2017-10-11T21:57:43.921Z,78.90
2017-10-11T22:00:12.155Z,78.30
2017-10-11T22:02:39.635Z,78.30
2017-10-11T22:05:07.921Z,78.30
2017-10-11T22:07:36.162Z,78.90
2017-10-11T22:10:03.640Z,78.90
2017-10-11T22:12:31.142Z,78.50
2017-10-11T22:14:58.603Z,77.90
2017-10-11T22:17:26.103Z,78.00
2017-10-11T22:19:54.129Z,77.90
2017-10-11T22:22:21.611Z,77.50
2017-10-11T22:24:49.087Z,77.50
2017-10-11T22:27:16.667Z,77.80
2017-10-11T22:29:44.150Z,76.90
2017-10-11T22:32:11.644Z,77.30
2017-10-11T22:34:39.371Z,77.10
2017-10-11T22:37:06.867Z,77.50
2017-10-11T22:39:34.426Z,77.40
2017-10-11T22:42:01.939Z,77.40
2017-10-11T22:44:30.247Z,76.80
2017-10-11T22:46:57.731Z,76.80
2017-10-11T22:49:25.191Z,77.40
2017-10-11T22:51:52.743Z,76.80
2017-10-11T22:54:20.238Z,77.30
2017-10-11T22:56:47.730Z,77.10
2017-10-11T22:59:15.218Z,76.40
2017-10-11T23:01:42.752Z,77.10
2017-10-11T23:04:10.223Z,77.00
2017-10-11T23:06:37.712Z,76.90
2017-10-11T23:09:05.177Z,77.00
2017-10-11T23:11:32.791Z,76.70
2017-10-11T23:14:00.298Z,77.80
2017-10-11T23:26:17.783Z,78.10
2017-10-11T23:28:45.269Z,76.80
2017-10-11T23:31:12.771Z,77.10
2017-10-11T23:33:40.247Z,77.30
2017-10-11T23:36:07.760Z,76.80
2017-10-11T23:38:35.971Z,77.00
2017-10-11T23:41:03.445Z,77.00
2017-10-11T23:43:30.940Z,76.60
2017-10-11T23:45:59.172Z,76.50
2017-10-11T23:48:26.675Z,76.50
2017-10-11T23:50:54.917Z,76.20
2017-10-11T23:53:22.448Z,76.20
2017-10-11T23:55:49.911Z,76.50
2017-10-11T23:58:17.424Z,76.30
